createdAt,value
2023-03-13T00:00:18.539Z,72.09
2023-03-13T00:02:46.720Z,71.60
2023-03-13T00:05:14.344Z,72.06
2023-03-13T00:07:42.086Z,72.15
2023-03-13T00:10:09.690Z,71.69
2023-03-13T00:12:37.657Z,71.87
2023-03-13T00:15:05.293Z,72.08
2023-03-13T00:17:33.619Z,72.05
2023-03-13T00:20:01.614Z,71.53
2023-03-13T00:22:29.336Z,72.21
2023-03-13T00:24:59.536Z,71.89
2023-03-13T00:27:27.137Z,71.84
2023-03-13T00:29:54.900Z,72.21
2023-03-13T00:32:22.521Z,72.45
2023-03-13T00:34:50.157Z,72.46
2023-03-13T00:37:18.136Z,72.57
2023-03-13T00:39:45.716Z,71.89
2023-03-13T00:42:13.313Z,71.97
2023-03-13T00:44:40.945Z,71.70
2023-03-13T00:47:08.545Z,71.87
2023-03-13T00:49:36.140Z,72.02
2023-03-13T00:52:03.760Z,71.84
2023-03-13T00:54:31.318Z,72.08
2023-03-13T00:56:58.887Z,72.44
2023-03-13T00:59:26.524Z,72.50
2023-03-13T01:01:54.867Z,73.08
2023-03-13T01:04:22.510Z,73.42
2023-03-13T01:06:50.183Z,73.57
2023-03-13T01:09:18.248Z,74.30
2023-03-13T01:11:45.831Z,74.11
2023-03-13T01:14:13.996Z,74.29
2023-03-13T01:16:41.614Z,74.48
2023-03-13T01:19:11.832Z,74.31
2023-03-13T01:21:40.524Z,74.52
2023-03-13T01:24:08.108Z,74.44
2023-03-13T01:26:35.827Z,74.45
2023-03-13T01:29:03.405Z,75.04
2023-03-13T01:31:31.420Z,75.38
2023-03-13T01:33:59.098Z,75.17
2023-03-13T01:36:26.700Z,75.65
2023-03-13T01:38:54.583Z,75.19
2023-03-13T01:41:22.151Z,75.80
2023-03-13T01:43:49.737Z,75.75
2023-03-13T01:46:18.021Z,75.86
2023-03-13T01:48:45.698Z,75.36
2023-03-13T01:51:13.847Z,75.64
2023-03-13T01:53:41.710Z,74.88
2023-03-13T01:56:09.278Z,75.25
2023-03-13T01:58:36.893Z,74.83
2023-03-13T02:01:04.512Z,74.94
2023-03-13T02:03:32.416Z,75.57
2023-03-13T02:06:00.021Z,75.48
2023-03-13T02:08:27.590Z,75.76
2023-03-13T02:10:55.121Z,75.83
2023-03-13T02:13:22.742Z,75.62
2023-03-13T02:15:50.886Z,76.11
2023-03-13T02:18:18.478Z,76.43
2023-03-13T02:20:47.085Z,76.52
2023-03-13T02:23:14.656Z,76.75
2023-03-13T02:25:42.233Z,76.37
2023-03-13T02:28:10.174Z,76.87
2023-03-13T02:30:37.751Z,77.65
2023-03-13T02:33:05.286Z,77.36
2023-03-13T02:35:33.294Z,77.98
2023-03-13T02:38:00.896Z,78.29
2023-03-13T02:40:29.016Z,78.58
2023-03-13T02:42:57.602Z,78.78
2023-03-13T02:45:25.186Z,78.82
2023-03-13T02:47:52.744Z,79.50
2023-03-13T02:50:20.372Z,80.05
2023-03-13T02:52:48.331Z,80.15
2023-03-13T02:55:18.131Z,80.73
2023-03-13T02:57:45.796Z,80.54
2023-03-13T03:00:13.391Z,80.22
2023-03-13T03:02:40.963Z,80.45
2023-03-13T03:05:08.912Z,80.85
2023-03-13T03:07:36.437Z,81.13
2023-03-13T03:10:03.991Z,80.97
2023-03-13T03:12:31.577Z,81.22
2023-03-13T03:14:59.145Z,81.59
2023-03-13T03:17:27.170Z,81.74
2023-03-13T03:19:54.791Z,81.79
2023-03-13T03:22:22.373Z,81.74
2023-03-13T03:24:49.938Z,81.76
2023-03-13T03:27:30.154Z,82.09
2023-03-13T03:29:57.705Z,81.58
2023-03-13T03:32:25.281Z,81.51
2023-03-13T03:34:52.941Z,81.90
2023-03-13T03:37:20.488Z,81.21
2023-03-13T03:39:48.354Z,81.10
2023-03-13T03:42:15.950Z,81.77
2023-03-13T03:44:43.564Z,81.40
2023-03-13T03:47:11.211Z,81.28
2023-03-13T03:49:38.854Z,81.76
2023-03-13T03:52:07.029Z,82.08
2023-03-13T03:54:35.210Z,82.85
2023-03-13T03:57:02.867Z,83.08
2023-03-13T03:59:30.936Z,82.95
2023-03-13T04:01:58.573Z,82.89
2023-03-13T04:04:26.804Z,83.07
2023-03-13T04:06:54.377Z,83.47
2023-03-13T04:09:21.934Z,83.35
2023-03-13T04:11:49.521Z,83.15
2023-03-13T04:14:17.101Z,83.46
2023-03-13T04:16:45.264Z,83.41
2023-03-13T04:19:12.903Z,82.86
2023-03-13T04:21:40.792Z,82.85
2023-03-13T04:24:08.387Z,82.59
2023-03-13T04:26:36.002Z,82.46
2023-03-13T04:29:03.624Z,82.02
2023-03-13T04:31:31.156Z,82.09
2023-03-13T04:33:58.749Z,81.88
2023-03-13T04:36:26.366Z,82.09
2023-03-13T04:38:54.021Z,82.51
2023-03-13T04:41:22.231Z,82.11
2023-03-13T04:43:50.288Z,82.16
2023-03-13T04:46:18.627Z,82.48
2023-03-13T04:48:46.914Z,82.20
2023-03-13T04:51:14.485Z,82.55
2023-03-13T04:53:42.651Z,82.37
2023-03-13T04:56:10.271Z,82.30
2023-03-13T04:58:37.857Z,82.94
2023-03-13T05:01:05.486Z,83.34
2023-03-13T05:03:33.085Z,84.24
2023-03-13T05:06:02.426Z,84.64
2023-03-13T05:08:30.006Z,84.64
2023-03-13T05:10:57.887Z,84.54
2023-03-13T05:13:25.504Z,84.70
2023-03-13T05:15:53.143Z,84.68
2023-03-13T05:18:21.289Z,85.27
2023-03-13T05:20:48.837Z,85.40
2023-03-13T05:23:16.442Z,86.05
2023-03-13T05:25:44.115Z,85.46
2023-03-13T05:28:12.176Z,85.63
2023-03-13T05:30:40.116Z,86.03
2023-03-13T05:33:07.769Z,85.19
2023-03-13T05:35:35.432Z,85.09
2023-03-13T05:38:03.118Z,85.34
2023-03-13T05:40:30.847Z,84.88
2023-03-13T05:42:59.733Z,84.46
2023-03-13T05:45:27.321Z,84.60
2023-03-13T05:47:54.949Z,84.67
2023-03-13T05:50:22.908Z,84.27
2023-03-13T05:52:50.519Z,84.54
2023-03-13T05:55:18.711Z,84.23
2023-03-13T05:57:46.730Z,83.83
2023-03-13T06:00:14.361Z,83.80
2023-03-13T06:02:42.121Z,83.85
2023-03-13T06:05:09.774Z,83.41
2023-03-13T06:07:38.296Z,83.91
2023-03-13T06:10:06.016Z,83.13
2023-03-13T06:12:33.922Z,83.48
2023-03-13T06:15:01.563Z,82.81
2023-03-13T06:17:29.378Z,83.69
2023-03-13T06:19:57.326Z,83.21
2023-03-13T06:22:24.943Z,83.20
2023-03-13T06:24:52.726Z,83.12
2023-03-13T06:27:20.284Z,82.98
2023-03-13T06:29:47.925Z,83.47
2023-03-13T06:32:15.945Z,83.21
2023-03-13T06:34:43.907Z,83.39
2023-03-13T06:37:11.668Z,82.97
2023-03-13T06:39:39.446Z,82.99
2023-03-13T06:42:07.085Z,82.57
2023-03-13T06:44:35.043Z,82.81
2023-03-13T06:47:02.707Z,82.64
2023-03-13T06:49:30.361Z,82.98
2023-03-13T06:51:57.999Z,82.60
2023-03-13T06:54:25.771Z,82.53
2023-03-13T06:56:55.065Z,82.40
2023-03-13T06:59:22.657Z,82.55
2023-03-13T07:01:50.512Z,82.28
2023-03-13T07:04:20.268Z,81.96
2023-03-13T07:06:47.963Z,82.10
2023-03-13T07:09:15.994Z,81.75
2023-03-13T07:11:43.587Z,82.37
2023-03-13T07:14:17.020Z,82.00
2023-03-13T07:16:45.447Z,81.39
2023-03-13T07:19:13.209Z,81.29
2023-03-13T07:21:41.452Z,81.58
2023-03-13T07:24:09.516Z,80.75
2023-03-13T07:26:37.184Z,81.34
2023-03-13T07:29:05.720Z,80.88
2023-03-13T07:31:34.279Z,80.84
2023-03-13T07:34:02.892Z,81.26
2023-03-13T07:36:31.096Z,80.93
2023-03-13T07:38:58.967Z,80.24
2023-03-13T07:41:26.913Z,80.83
2023-03-13T07:43:54.655Z,80.32
2023-03-13T07:46:23.297Z,79.84
2023-03-13T07:48:51.330Z,80.07
2023-03-13T07:51:20.544Z,79.32
2023-03-13T07:53:51.558Z,79.24
2023-03-13T07:56:19.217Z,79.19
2023-03-13T07:58:47.236Z,78.72
2023-03-13T08:01:14.987Z,78.56
2023-03-13T08:03:43.060Z,78.82
2023-03-13T08:06:10.950Z,78.04
2023-03-13T08:08:38.738Z,78.27
2023-03-13T08:11:07.643Z,78.01
2023-03-13T08:13:35.786Z,78.05
2023-03-13T08:16:03.608Z,77.71
2023-03-13T08:18:34.874Z,77.88
2023-03-13T08:21:02.614Z,77.64
2023-03-13T08:23:30.786Z,77.93
2023-03-13T08:25:58.729Z,77.73
2023-03-13T08:28:26.509Z,77.85
2023-03-13T08:30:54.424Z,77.67
2023-03-13T08:33:22.177Z,77.16
2023-03-13T08:35:50.474Z,77.33
2023-03-13T08:38:18.833Z,76.92
2023-03-13T08:40:46.585Z,76.66
2023-03-13T08:43:14.376Z,76.64
2023-03-13T08:45:42.285Z,76.15
2023-03-13T08:48:10.196Z,76.16
2023-03-13T08:50:37.914Z,76.13
2023-03-13T08:53:05.753Z,76.42
2023-03-13T08:55:33.616Z,75.94
2023-03-13T08:58:01.311Z,76.47
2023-03-13T09:00:29.724Z,75.65
2023-03-13T09:02:57.518Z,75.53
2023-03-13T09:05:25.230Z,75.81
2023-03-13T09:07:53.095Z,75.59
2023-03-13T09:10:21.154Z,75.94
2023-03-13T09:12:49.770Z,76.02
2023-03-13T09:15:17.655Z,75.22
2023-03-13T09:17:45.509Z,75.82
2023-03-13T09:20:13.184Z,75.16
2023-03-13T09:22:41.133Z,75.69
2023-03-13T09:25:09.719Z,76.01
2023-03-13T09:27:37.511Z,75.78
2023-03-13T09:30:05.505Z,76.22
2023-03-13T09:32:33.490Z,76.62
2023-03-13T09:35:01.305Z,76.19
2023-03-13T09:37:29.169Z,76.36
2023-03-13T09:39:57.798Z,76.22
2023-03-13T09:42:25.639Z,76.43
2023-03-13T09:44:53.612Z,75.77
2023-03-13T09:47:21.391Z,75.12
2023-03-13T09:49:50.005Z,75.16
2023-03-13T09:52:17.996Z,74.45
2023-03-13T09:54:46.068Z,74.87
2023-03-13T09:57:13.815Z,75.43
2023-03-13T09:59:43.889Z,75.41
2023-03-13T10:02:12.193Z,75.49
2023-03-13T10:04:41.922Z,75.38
2023-03-13T10:07:10.183Z,75.04
2023-03-13T10:09:37.937Z,74.20
2023-03-13T10:12:05.771Z,73.27
2023-03-13T10:14:34.124Z,72.47
2023-03-13T10:17:01.889Z,72.47
2023-03-13T10:19:29.720Z,71.63
2023-03-13T10:21:57.744Z,70.69
2023-03-13T10:24:25.491Z,70.36
2023-03-13T10:26:53.899Z,69.50
2023-03-13T10:29:21.808Z,69.21
2023-03-13T10:31:50.336Z,69.12
2023-03-13T10:34:18.098Z,69.29
2023-03-13T10:36:46.068Z,69.67
2023-03-13T10:39:15.188Z,69.09
2023-03-13T10:41:43.035Z,68.25
2023-03-13T10:44:10.921Z,67.75
2023-03-13T10:46:38.682Z,65.05
2023-03-13T10:49:06.418Z,63.42
2023-03-13T10:51:35.163Z,62.52
2023-03-13T10:54:03.223Z,61.25
2023-03-13T10:56:31.012Z,62.46
2023-03-13T10:58:59.179Z,63.09
2023-03-13T11:01:27.871Z,64.49
2023-03-13T11:03:56.373Z,65.34
2023-03-13T11:06:24.293Z,65.74
2023-03-13T11:08:52.230Z,65.47
2023-03-13T11:11:20.305Z,64.63
2023-03-13T11:13:48.126Z,64.77
2023-03-13T11:16:16.412Z,64.25
2023-03-13T11:18:44.210Z,64.17
2023-03-13T11:21:18.179Z,63.61
2023-03-13T11:23:46.852Z,62.82
2023-03-13T11:26:14.700Z,61.65
2023-03-13T11:28:43.022Z,61.84
2023-03-13T11:31:10.911Z,62.07
2023-03-13T11:33:38.988Z,62.45
2023-03-13T11:36:06.949Z,62.38
2023-03-13T11:38:34.836Z,62.47
2023-03-13T11:41:03.694Z,62.88
2023-03-13T11:43:31.515Z,62.26
2023-03-13T11:45:59.477Z,61.48
2023-03-13T11:48:27.554Z,61.43
2023-03-13T11:50:55.309Z,61.48
2023-03-13T11:53:23.723Z,62.00
2023-03-13T11:55:52.034Z,61.62
2023-03-13T11:58:19.817Z,61.37
2023-03-13T12:00:47.726Z,60.53
2023-03-13T12:03:15.932Z,60.04
2023-03-13T12:05:46.139Z,60.10
2023-03-13T12:08:13.905Z,60.02
2023-03-13T12:10:41.874Z,60.72
2023-03-13T12:13:09.773Z,60.96
2023-03-13T12:15:37.585Z,60.78
2023-03-13T12:18:06.447Z,60.09
2023-03-13T12:20:34.838Z,60.59
2023-03-13T12:23:02.905Z,61.28
2023-03-13T12:25:30.696Z,61.38
2023-03-13T12:27:59.037Z,61.99
2023-03-13T12:30:27.677Z,61.69
2023-03-13T12:32:55.808Z,61.61
2023-03-13T12:35:23.722Z,60.65
2023-03-13T12:37:51.726Z,58.33
2023-03-13T12:40:19.854Z,56.91
2023-03-13T12:42:48.370Z,56.05
2023-03-13T12:45:16.330Z,55.80
2023-03-13T12:47:44.458Z,56.63
2023-03-13T12:50:12.585Z,57.64
2023-03-13T12:52:40.467Z,58.13
2023-03-13T12:55:08.916Z,58.39
2023-03-13T12:57:36.886Z,58.77
2023-03-13T13:00:05.890Z,59.08
2023-03-13T13:02:34.040Z,58.63
2023-03-13T13:05:01.988Z,58.98
2023-03-13T13:07:29.968Z,59.34
2023-03-13T13:09:57.876Z,59.59
2023-03-13T13:12:26.162Z,60.48
2023-03-13T13:14:54.006Z,60.58
2023-03-13T13:17:21.998Z,59.96
2023-03-13T13:19:50.516Z,60.84
2023-03-13T13:22:18.593Z,60.52
2023-03-13T13:24:47.996Z,61.16
2023-03-13T13:27:15.762Z,60.34
2023-03-13T13:29:43.571Z,60.46
2023-03-13T13:32:11.758Z,60.14
2023-03-13T13:34:42.545Z,59.81
2023-03-13T13:37:10.403Z,59.61
2023-03-13T13:39:38.377Z,60.03
2023-03-13T13:42:06.288Z,60.24
2023-03-13T13:44:34.406Z,59.67
2023-03-13T13:47:02.371Z,59.95
2023-03-13T13:49:30.160Z,60.43
2023-03-13T13:51:58.046Z,59.86
2023-03-13T13:54:26.109Z,60.15
2023-03-13T13:56:55.854Z,60.01
2023-03-13T13:59:24.974Z,60.21
2023-03-13T14:01:53.057Z,59.75
2023-03-13T14:04:20.953Z,60.04
2023-03-13T14:06:48.687Z,59.47
2023-03-13T14:09:17.323Z,59.58
2023-03-13T14:11:45.222Z,59.98
2023-03-13T14:14:13.255Z,59.62
2023-03-13T14:16:42.537Z,59.60
2023-03-13T14:19:10.430Z,59.16
2023-03-13T14:21:38.948Z,59.69
2023-03-13T14:24:06.945Z,59.29
2023-03-13T14:26:34.897Z,59.65
2023-03-13T14:29:03.089Z,59.78
2023-03-13T14:31:31.531Z,59.44
2023-03-13T14:33:59.514Z,60.59
2023-03-13T14:36:27.393Z,60.33
2023-03-13T14:38:55.433Z,60.54
2023-03-13T14:41:23.597Z,60.50
2023-03-13T14:43:51.526Z,60.70
2023-03-13T14:46:19.907Z,60.27
2023-03-13T14:48:47.795Z,60.06
2023-03-13T14:51:16.754Z,60.65
2023-03-13T14:53:45.914Z,60.57
2023-03-13T14:56:14.390Z,60.85
2023-03-13T14:58:43.785Z,60.90
2023-03-13T15:01:11.921Z,61.49
2023-03-13T15:03:40.135Z,61.84
2023-03-13T15:06:08.640Z,62.38
2023-03-13T15:08:36.756Z,62.21
2023-03-13T15:11:05.483Z,62.07
2023-03-13T15:13:33.556Z,62.60
2023-03-13T15:16:01.595Z,62.08
2023-03-13T15:18:29.384Z,62.08
2023-03-13T15:20:57.186Z,62.47
2023-03-13T15:23:26.209Z,63.17
2023-03-13T15:25:54.453Z,63.72
2023-03-13T15:28:22.337Z,64.83
2023-03-13T15:30:50.316Z,66.38
2023-03-13T15:33:18.342Z,68.16
2023-03-13T15:35:47.262Z,69.01
2023-03-13T15:38:15.751Z,69.46
2023-03-13T15:40:43.655Z,70.12
2023-03-13T15:43:11.589Z,70.50
2023-03-13T15:45:39.564Z,70.30
2023-03-13T15:48:07.599Z,70.20
2023-03-13T15:50:35.447Z,69.61
2023-03-13T15:53:03.312Z,69.36
2023-03-13T15:55:31.045Z,69.69
2023-03-13T15:57:58.920Z,68.71
2023-03-13T16:00:27.576Z,68.82
2023-03-13T16:02:55.305Z,68.72
2023-03-13T16:05:23.208Z,68.85
2023-03-13T16:07:51.078Z,68.71
2023-03-13T16:10:19.357Z,68.45
2023-03-13T16:12:47.877Z,68.48
2023-03-13T16:15:15.813Z,68.22
2023-03-13T16:17:43.500Z,68.69
2023-03-13T16:20:11.397Z,67.87
2023-03-13T16:22:39.472Z,67.90
2023-03-13T16:25:08.233Z,68.00
2023-03-13T16:27:36.127Z,67.51
2023-03-13T16:30:04.751Z,67.35
2023-03-13T16:32:33.140Z,67.57
2023-03-13T16:35:01.041Z,67.59
2023-03-13T16:37:29.439Z,67.84
2023-03-13T16:39:57.495Z,67.98
2023-03-13T16:42:25.365Z,68.17
2023-03-13T16:44:53.473Z,68.02
2023-03-13T16:47:21.261Z,68.18
2023-03-13T16:49:49.815Z,68.05
2023-03-13T16:52:17.811Z,68.17
2023-03-13T16:54:46.072Z,68.30
2023-03-13T16:57:14.032Z,68.17
2023-03-13T16:59:42.046Z,68.19
2023-03-13T17:02:10.571Z,68.56
2023-03-13T17:04:38.560Z,68.94
2023-03-13T17:07:06.504Z,68.40
2023-03-13T17:09:34.449Z,68.30
2023-03-13T17:12:02.312Z,68.74
2023-03-13T17:14:30.813Z,68.44
2023-03-13T17:16:58.664Z,68.93
2023-03-13T17:19:26.466Z,68.85
2023-03-13T17:21:54.424Z,69.33
2023-03-13T17:24:22.325Z,68.84
2023-03-13T17:26:50.783Z,69.27
2023-03-13T17:29:19.192Z,69.55
2023-03-13T17:31:47.093Z,69.25
2023-03-13T17:34:16.893Z,68.99
2023-03-13T17:36:45.779Z,69.10
2023-03-13T17:39:15.679Z,69.04
2023-03-13T17:41:43.547Z,68.94
2023-03-13T17:44:11.486Z,69.61
2023-03-13T17:46:39.300Z,68.90
2023-03-13T17:49:07.908Z,68.95
2023-03-13T17:51:36.616Z,68.83
2023-03-13T17:54:04.428Z,69.04
2023-03-13T17:56:32.394Z,69.21
2023-03-13T17:59:00.282Z,68.49
2023-03-13T18:01:28.621Z,69.15
2023-03-13T18:03:57.306Z,69.03
2023-03-13T18:06:25.230Z,69.27
2023-03-13T18:08:52.986Z,69.46
2023-03-13T18:11:20.747Z,69.06
2023-03-13T18:13:48.805Z,69.59
2023-03-13T18:16:17.307Z,69.13
2023-03-13T18:18:45.094Z,69.88
2023-03-13T18:21:12.933Z,69.52
2023-03-13T18:23:41.290Z,70.06
2023-03-13T18:26:09.114Z,69.99
2023-03-13T18:28:37.795Z,69.86
2023-03-13T18:31:05.641Z,70.06
2023-03-13T18:33:33.541Z,69.93
2023-03-13T18:36:01.713Z,70.22
2023-03-13T18:38:29.465Z,70.38
2023-03-13T18:40:57.833Z,70.70
2023-03-13T18:43:25.796Z,70.82
2023-03-13T18:45:53.934Z,71.02
2023-03-13T18:48:21.783Z,71.04
2023-03-13T18:50:49.890Z,71.20
2023-03-13T18:53:18.467Z,70.84
2023-03-13T18:55:46.216Z,70.38
2023-03-13T18:58:14.737Z,70.33
2023-03-13T19:00:42.668Z,70.50
2023-03-13T19:03:10.569Z,70.37
2023-03-13T19:05:40.412Z,70.29
2023-03-13T19:08:08.395Z,70.24
2023-03-13T19:10:38.801Z,70.13
2023-03-13T19:13:07.202Z,70.70
2023-03-13T19:15:35.117Z,70.35
2023-03-13T19:18:04.135Z,70.22
2023-03-13T19:20:32.071Z,70.10
2023-03-13T19:23:01.028Z,70.24
2023-03-13T19:25:29.642Z,69.74
2023-03-13T19:27:58.000Z,69.75
2023-03-13T19:30:26.515Z,69.71
2023-03-13T19:32:54.331Z,69.39
2023-03-13T19:35:22.639Z,69.50
2023-03-13T19:37:50.376Z,69.31
2023-03-13T19:40:18.284Z,70.18
2023-03-13T19:42:46.677Z,69.39
2023-03-13T19:45:14.785Z,69.60
2023-03-13T19:47:43.274Z,69.87
2023-03-13T19:50:12.524Z,69.80
2023-03-13T19:52:40.531Z,69.52
2023-03-13T19:55:09.437Z,69.83
2023-03-13T19:57:37.360Z,69.63
2023-03-13T20:00:06.491Z,69.56
2023-03-13T20:02:34.329Z,69.95
2023-03-13T20:05:02.242Z,69.73
2023-03-13T20:07:30.230Z,70.10
2023-03-13T20:09:58.332Z,69.82
2023-03-13T20:12:26.721Z,70.12
2023-03-13T20:14:54.492Z,69.88
2023-03-13T20:17:22.400Z,69.67
2023-03-13T20:19:51.275Z,70.09
2023-03-13T20:22:19.159Z,69.79
2023-03-13T20:24:46.922Z,69.66
2023-03-13T20:27:14.755Z,70.53
2023-03-13T20:29:42.818Z,69.89
2023-03-13T20:32:11.973Z,69.93
2023-03-13T20:34:40.331Z,70.22
2023-03-13T20:37:08.239Z,70.20
2023-03-13T20:39:36.146Z,70.13
2023-03-13T20:42:04.114Z,70.07
2023-03-13T20:44:32.554Z,70.40
2023-03-13T20:47:00.635Z,70.09
2023-03-13T20:49:28.710Z,70.57
2023-03-13T20:51:56.572Z,70.04
2023-03-13T20:54:24.510Z,70.78
2023-03-13T20:56:55.593Z,70.49
2023-03-13T20:59:23.509Z,70.94
2023-03-13T21:01:51.408Z,70.90
2023-03-13T21:04:19.484Z,71.01
2023-03-13T21:06:47.386Z,71.25
2023-03-13T21:09:15.944Z,70.83
2023-03-13T21:11:43.826Z,71.52
2023-03-13T21:14:11.624Z,71.29
2023-03-13T21:16:39.553Z,71.76
2023-03-13T21:19:07.526Z,71.63
2023-03-13T21:21:35.948Z,71.86
2023-03-13T21:24:03.838Z,71.51
2023-03-13T21:26:32.687Z,71.62
2023-03-13T21:29:00.366Z,71.55
2023-03-13T21:31:28.251Z,71.42
2023-03-13T21:33:56.860Z,71.64
2023-03-13T21:36:24.670Z,71.54
2023-03-13T21:38:52.442Z,71.45
2023-03-13T21:41:20.847Z,71.61
2023-03-13T21:43:48.673Z,71.55
2023-03-13T21:46:17.345Z,71.92
2023-03-13T21:51:13.974Z,71.65
2023-03-13T21:53:42.303Z,71.81
2023-03-13T21:56:15.261Z,71.88
2023-03-13T21:58:44.001Z,71.87
2023-03-13T22:01:11.906Z,72.12
2023-03-13T22:03:40.202Z,72.32
2023-03-13T22:06:07.889Z,72.30
2023-03-13T22:08:35.632Z,72.58
2023-03-13T22:11:03.958Z,72.53
2023-03-13T22:13:31.748Z,72.54
2023-03-13T22:15:59.640Z,72.44
2023-03-13T22:18:27.428Z,72.67
2023-03-13T22:20:58.172Z,72.59
2023-03-13T22:23:27.738Z,72.93
2023-03-13T22:25:55.731Z,72.99
2023-03-13T22:28:23.442Z,72.81
2023-03-13T22:30:51.262Z,72.56
2023-03-13T22:33:19.282Z,72.58
2023-03-13T22:35:49.903Z,72.50
2023-03-13T22:38:17.693Z,72.61
2023-03-13T22:40:45.498Z,71.96
2023-03-13T22:43:13.191Z,71.81
2023-03-13T22:45:40.878Z,71.92
2023-03-13T22:48:09.584Z,72.55
2023-03-13T22:50:37.394Z,71.69
2023-03-13T22:53:05.180Z,71.88
2023-03-13T22:55:32.906Z,71.37
2023-03-13T22:58:00.640Z,71.39
2023-03-13T23:00:29.140Z,71.72
2023-03-13T23:02:56.856Z,71.50
2023-03-13T23:05:24.600Z,71.54
2023-03-13T23:07:52.241Z,71.89
2023-03-13T23:10:20.246Z,71.80
2023-03-13T23:12:48.030Z,71.57
2023-03-13T23:15:15.732Z,72.30
2023-03-13T23:17:43.382Z,71.90
2023-03-13T23:20:13.373Z,71.94
2023-03-13T23:22:41.098Z,71.93
2023-03-13T23:25:09.386Z,71.87
2023-03-13T23:27:37.034Z,71.47
2023-03-13T23:30:04.876Z,71.72
2023-03-13T23:32:32.990Z,71.63
2023-03-13T23:35:01.010Z,71.79
2023-03-13T23:37:29.190Z,72.13
2023-03-13T23:39:56.871Z,72.08
2023-03-13T23:42:24.472Z,72.31
2023-03-13T23:44:52.135Z,72.50
2023-03-13T23:47:19.798Z,72.18
2023-03-13T23:49:47.978Z,71.74
2023-03-13T23:52:15.575Z,72.47
2023-03-13T23:54:43.714Z,72.31
2023-03-13T23:57:11.330Z,72.21
2023-03-13T23:59:38.926Z,72.16
